x

South Nomad (46036) Wave Buoy

8:00pm - Sun 25th Sep 2016 All times are UTC.

  • Sig Wave height 9.2ft
  • Peak Period 17s
  • Wind
    25mph, 29mph gusts
  • Sea Temp 61°f
  • Air Temp 63°f
  • Sea Pressure 1017.8mb

More Historic Weather Station data

Upgrade to MSW Pro to gain access to the past 30 days of data for over 8000 Wavebouys and Weather Stations around the globe.

Join Pro

Comparision Forecast

View Surf forecast
   
Sun 09/25 8:00pm 9ft 17s 25 29 mph 1017.8mb 61f 63f
7:00pm 10ft 10s 22 29 mph 1018.6mb 61f 63f
6:00pm 9ft 9s 22 29 mph 1018.5mb 61f 63f
5:00pm 9.5ft 10s 22 27 mph 1018.4mb 62f 63f
4:00pm 9.5ft 8s 22 27 mph 1018.2mb 61f 62f
3:00pm 10ft 9s 22 27 mph 1018.4mb 62f 63f
2:00pm 10ft 9s 20 25 mph 1018.4mb 62f 63f
1:00pm 10ft 9s 22 27 mph 1018mb 62f 63f
12:00pm 10ft 9s 20 25 mph 1017.8mb 62f 63f
11:00am 9.5ft 10s 22 27 mph 1017.9mb 62f 63f
10:00am 10.5ft 10s 22 29 mph 1017.9mb 62f 64f
9:00am 10ft 10s 25 31 mph 1017.8mb 62f 64f
8:00am 10ft 10s 20 25 mph 1017.8mb 61f 62f
7:00am 11ft 11s 11 13 mph 1018.3mb 61f 61f
6:00am 11ft 11s 11 16 mph 1018.2mb 61f 61f
5:00am 10.5ft 10s 13 18 mph 1018mb 61f 61f
4:00am 11.5ft 11s 16 18 mph 1017.1mb 62f 61f
3:00am 11ft 10s 18 20 mph 1016.1mb 62f 61f
2:00am 13ft 10s 22 27 mph 1015.6mb 62f 62f
1:00am 13ft 10s 22 31 mph 1014.3mb 62f 62f
12:00am 13.5ft 9s 27 34 mph 1013.1mb 62f 62f
Sat 09/24 11:00pm 13ft 10s 29 38 mph 1012.1mb 62f 63f
10:00pm 12.5ft 10s 29 36 mph 1011.2mb 62f 63f
9:00pm 12ft 9s 27 36 mph 1010.7mb 62f 63f
8:00pm 12ft 10s 27 34 mph 1010.5mb 62f 64f
7:00pm 11ft 8s 27 31 mph 1010.3mb 62f 64f
6:00pm 11ft 8s 22 27 mph 1010.8mb 62f 64f
4:00pm 10ft 6s 27 34 mph 1011.3mb 62f 60f
3:00pm 9.5ft 6s 31 38 mph 1013mb 62f 58f
1:00pm 8.5ft 9s 22 31 mph 1016.1mb 62f 58f
12:00pm 9ft 10s 27 31 mph 1017.4mb 62f 58f
11:00am 8ft 10s 22 31 mph 1018mb 62f 61f
10:00am 8ft 10s 20 25 mph 1019.4mb 62f 61f
9:00am 8ft 10s 18 25 mph 1020.3mb 62f 61f
8:00am 8.5ft 10s 16 20 mph 1021mb 62f 60f
7:00am 8ft 10s 16 18 mph 1021.2mb 62f 61f
6:00am 8.5ft 11s 13 18 mph 1021mb 62f 61f
5:00am 9ft 11s 13 18 mph 1021.1mb 62f 61f
4:00am 9ft 11s 11 13 mph 1021.5mb 62f 61f
3:00am 9ft 11s 9 11 mph 1020.9mb 62f 61f
2:00am 8.5ft 11s 9 11 mph 1021.3mb 62f 61f
1:00am 9ft 12s 9 11 mph 1021.2mb 62f 61f
12:00am 9.5ft 10s 11 13 mph 1021mb 62f 61f
Fri 09/23 11:00pm 9.5ft 12s 13 16 mph 1020.9mb 62f 61f
10:00pm 9ft 12s 13 18 mph 1020mb 62f 61f
9:00pm 9.5ft 11s 13 18 mph 1019.9mb 62f 61f
8:00pm 9.5ft 12s 16 18 mph 1019.5mb 62f 61f
7:00pm 11ft 12s 16 20 mph 1019.2mb 62f 61f
6:00pm 10ft 11s 16 20 mph 1018.5mb 62f 61f
5:00pm 11ft 11s 16 20 mph 1017.5mb 62f 60f
4:00pm 11ft 11s 16 20 mph 1016.7mb 62f 60f
3:00pm 11.5ft 12s 18 20 mph 1015.9mb 62f 60f
2:00pm 12ft 12s 18 22 mph 1015.2mb 62f 60f
1:00pm 12ft 12s 18 22 mph 1014.7mb 62f 60f
12:00pm 13ft 12s 20 25 mph 1013.8mb 62f 60f
11:00am 13ft 11s 18 22 mph 1013.2mb 62f 60f
10:00am 13ft 12s 20 27 mph 1012.7mb 62f 60f
9:00am 13.5ft 12s 20 25 mph 1012.1mb 62f 60f
8:00am 13ft 12s 20 25 mph 1011.1mb 62f 60f
7:00am 13ft 11s 20 22 mph 1010.3mb 62f 61f
6:00am 13.5ft 12s 18 22 mph 1009.3mb 62f 60f
5:00am 13ft 12s 20 25 mph 1008.3mb 62f 61f
4:00am 14.5ft 12s 22 29 mph 1007.3mb 62f 61f
3:00am 13.5ft 12s 18 22 mph 1006.3mb 62f 61f
2:00am 15ft 12s 20 25 mph 1005.4mb 62f 61f
1:00am 14ft 12s 20 29 mph 1004.9mb 62f 60f
12:00am 13.5ft 11s 22 27 mph 1004mb 62f 62f
Thu 09/22 11:00pm 13.5ft 10s 22 29 mph 1003mb 62f 62f
10:00pm 15ft 11s 22 29 mph 1002.6mb 62f 62f
9:00pm 13.5ft 10s 25 31 mph 1003.1mb 62f 62f
8:00pm 13.5ft 10s 29 34 mph 1004mb 62f 62f
7:00pm 13ft 10s 29 36 mph 1004.7mb 62f 62f
6:00pm 12ft 11s 31 38 mph 1005.1mb 62f 62f
5:00pm 12ft 9s 27 36 mph 1006mb 62f 62f
4:00pm 12ft 9s 27 34 mph 1007.3mb 62f 62f
3:00pm 10.5ft 9s 29 36 mph 1008.2mb 62f 61f
2:00pm 9.5ft 8s 29 36 mph 1009.1mb 62f 61f
1:00pm 9ft 7s 29 36 mph 1010.3mb 62f 61f
12:00pm 8ft 8s 27 34 mph 1011.4mb 62f 61f
11:00am 7ft 6s 27 34 mph 1012.7mb 62f 62f
10:00am 6ft 6s 25 31 mph 1013.8mb 62f 61f
9:00am 5.5ft 6s 25 29 mph 1014.9mb 62f 61f
8:00am 5ft 5s 25 29 mph 1015.9mb 62f 61f
7:00am 4.5ft 5s 22 27 mph 1016.8mb 62f 61f
6:00am 4.5ft 5s 22 25 mph 1017.7mb 62f 60f
5:00am 3.5ft 4s 20 25 mph 1019mb 62f 60f
4:00am 3.5ft 8s 18 22 mph 1019.4mb 62f 60f
3:00am 3.5ft 8s 16 18 mph 1019.8mb 62f 60f
2:00am 3.5ft 8s 13 16 mph 1020.2mb 62f 60f
1:00am 3.5ft 8s 13 16 mph 1021mb 62f 60f
12:00am 3.5ft 8s 13 16 mph 1022mb 63f 60f
Wed 09/21 11:00pm 4ft 8s 9 11 mph 1022.9mb 63f 60f
10:00pm 4ft 8s 7 9 mph 1023.8mb 63f 60f